Terminal Aerodrome Forecast
Issued by NWS Knoxville/Tri Cities, TN

Current Version | Previous Version | Text Only | Print | Product List | Glossary On
Versions: 1 2 3 4 5 6 7 8 9 10 11 12 13 14 15 16 17 18 19 20 21 22 23 24 25 26 27 28 29 30 31
000
FTUS44 KMRX 031728
TAFTRI
TAF
KTRI 031728Z 0318/0418 VRB03KT P6SM OVC025
     FM031900 VRB03KT 5SM -DZ BR OVC015
     FM032100 19005KT 3SM -DZ BR OVC009
     FM040100 VRB03KT 3SM -SHRA BR OVC007 WS020/23040KT
     FM041000 20005KT 5SM BR VCSH SCT010 OVC025 WS020/23040KT
     FM041200 21004KT 4SM -RA BR OVC007
     FM041500 24007KT 6SM BR VCSH OVC015=

USA.gov is the U.S. government's official web portal to all federal, state and local government web resources and services.